Delta Virtual Airport Information Service

Cologne Bonn Airport

ICAO: EDDK Country: Germany
Latitude: 50.866 Longitude: 7.143
Latest Arrival : UPS213 (KSDF-EDDK) Latest Departure : AAL712532 (EDDK-KEWR)


WX CaptureLIVE
Data provided by noaa.gov | Fetched at 13:51:58

METAR : EDDK 151820Z 35003KT 9999 -SHRA FEW040CB 23/20 Q1014 NOSIG

TAF : EDDK 151700Z 1518/1624 33005KT 9999 FEW030 BECMG 1518/1521 11005KT BECMG 1521/1523 VRB03KT PROB30 TEMPO 1603/1606 11005KT 4000 BR BECMG 1610/1612 13007KT TEMPO 1614/1622 18020G35KT 4000 TSRAGR BKN030CB BECMG 1622/1624 VRB03KT


Runway Data for EDDK
Data provided by openaviationdata.com

Runway ID Mag Var Hdg Length Elevation Surface ILS Freq ILS Id ILS Slope
7 0 64° 8050 ft 254 ft Concrete -- -- --
14L 0 137° 12496 ft 254 ft Asphalt 110.9 IKES 3
14R 0 137° 6101 ft 254 ft Concrete -- -- --
25 0 244° 8050 ft 254 ft Concrete 109.1 IKOW 3
32L 0 317° 6101 ft 254 ft Concrete -- -- --
32R 0 317° 12496 ft 254 ft Asphalt 109.7 IKEN 3

Cologne Bonn Airport, Germany
Use only for reference purposes



Not for navigational purposes.